createdAt,value
2019-03-30T00:00:57.869Z,56.40
2019-03-30T00:03:29.083Z,54.15
2019-03-30T00:06:00.265Z,50.58
2019-03-30T00:08:31.470Z,54.33
2019-03-30T00:11:02.645Z,53.80
2019-03-30T00:13:33.837Z,55.60
2019-03-30T00:16:05.102Z,52.40
2019-03-30T00:18:36.288Z,47.15
2019-03-30T00:21:07.467Z,50.03
2019-03-30T00:23:38.673Z,52.30
2019-03-30T00:26:09.872Z,53.63
2019-03-30T00:28:41.037Z,52.90
2019-03-30T00:31:12.260Z,54.35
2019-03-30T00:33:43.435Z,50.35
2019-03-30T00:36:14.600Z,48.65
2019-03-30T00:38:45.813Z,47.88
2019-03-30T00:41:17.073Z,48.70
2019-03-30T00:43:48.275Z,55.65
2019-03-30T00:46:19.443Z,58.50
2019-03-30T00:48:51.136Z,52.85
2019-03-30T00:51:22.336Z,53.73
2019-03-30T00:53:53.493Z,48.50
2019-03-30T00:56:24.748Z,51.30
2019-03-30T00:58:55.988Z,51.65
2019-03-30T01:01:27.195Z,48.52
2019-03-30T01:03:58.386Z,47.48
2019-03-30T01:06:29.583Z,50.88
2019-03-30T01:09:00.776Z,57.23
2019-03-30T01:11:32.318Z,56.92
2019-03-30T01:14:03.514Z,57.90
2019-03-30T01:16:34.683Z,56.55
2019-03-30T01:19:06.459Z,57.35
2019-03-30T01:21:37.683Z,57.53
2019-03-30T01:24:08.863Z,58.83
2019-03-30T01:26:40.029Z,55.05
2019-03-30T01:29:11.213Z,54.35
2019-03-30T01:31:42.377Z,49.20
2019-03-30T01:34:13.586Z,49.58
2019-03-30T01:36:44.803Z,50.08
2019-03-30T01:39:15.981Z,52.13
2019-03-30T01:41:47.158Z,51.02
2019-03-30T01:44:18.362Z,56.20
2019-03-30T01:46:49.516Z,53.55
2019-03-30T01:49:20.692Z,52.33
2019-03-30T01:51:51.908Z,51.55
2019-03-30T01:54:23.079Z,52.15
2019-03-30T01:56:54.354Z,51.70
2019-03-30T01:59:25.570Z,53.78
2019-03-30T02:01:56.723Z,51.88
2019-03-30T02:04:27.879Z,53.33
2019-03-30T02:06:59.079Z,44.45
2019-03-30T02:09:30.265Z,49.95
2019-03-30T02:12:01.586Z,55.33
2019-03-30T02:14:32.776Z,52.45
2019-03-30T02:17:03.974Z,52.88
2019-03-30T02:19:35.158Z,48.55
2019-03-30T02:22:06.361Z,53.73
2019-03-30T02:24:37.549Z,52.27
2019-03-30T02:27:08.717Z,51.90
2019-03-30T02:29:39.908Z,47.20
2019-03-30T02:32:11.073Z,51.70
2019-03-30T02:34:42.247Z,53.05
2019-03-30T02:37:13.450Z,53.75
2019-03-30T02:39:44.637Z,53.90
2019-03-30T02:42:15.860Z,55.98
2019-03-30T02:44:47.085Z,56.55
2019-03-30T02:47:19.119Z,55.88
2019-03-30T02:49:50.358Z,55.67
2019-03-30T02:52:21.592Z,53.90
2019-03-30T02:54:52.742Z,56.30
2019-03-30T02:57:23.954Z,56.25
2019-03-30T02:59:55.151Z,54.08
2019-03-30T03:02:26.302Z,57.95
2019-03-30T03:04:57.533Z,58.95
2019-03-30T03:07:28.765Z,55.08
2019-03-30T03:09:59.949Z,55.63
2019-03-30T03:12:31.331Z,58.10
2019-03-30T03:15:02.510Z,53.90
2019-03-30T03:17:33.716Z,57.58
2019-03-30T03:20:05.459Z,56.30
2019-03-30T03:22:36.622Z,58.30
2019-03-30T03:25:08.180Z,57.83
2019-03-30T03:27:39.416Z,57.00
2019-03-30T03:30:11.397Z,59.10
2019-03-30T03:32:42.575Z,59.90
2019-03-30T03:35:14.005Z,56.55
2019-03-30T03:37:46.507Z,57.40
2019-03-30T03:40:18.191Z,57.48
2019-03-30T03:42:49.467Z,51.75
2019-03-30T03:45:20.638Z,59.93
2019-03-30T03:47:51.830Z,60.88
2019-03-30T03:50:45.532Z,56.13
2019-03-30T03:53:18.361Z,58.90
2019-03-30T03:55:49.613Z,58.75
2019-03-30T03:58:22.281Z,58.02
2019-03-30T04:00:55.230Z,55.23
2019-03-30T04:03:27.896Z,51.18
2019-03-30T04:06:03.141Z,54.93
2019-03-30T04:08:34.549Z,53.10
2019-03-30T04:11:06.916Z,49.93
2019-03-30T04:13:39.075Z,56.42
2019-03-30T04:16:10.877Z,58.70
2019-03-30T04:18:42.121Z,55.80
2019-03-30T04:21:13.416Z,55.20
2019-03-30T04:23:44.590Z,55.03
2019-03-30T04:26:15.762Z,48.38
2019-03-30T04:28:47.012Z,49.38
2019-03-30T04:31:18.187Z,49.98
2019-03-30T04:33:49.336Z,44.73
2019-03-30T04:36:20.541Z,49.18
2019-03-30T04:38:51.745Z,46.83
2019-03-30T04:41:22.913Z,49.00
2019-03-30T04:43:54.146Z,48.68
2019-03-30T04:46:25.457Z,47.13
2019-03-30T04:48:56.630Z,48.92
2019-03-30T04:51:27.835Z,51.65
2019-03-30T04:53:59.021Z,50.15
2019-03-30T04:56:30.187Z,52.38
2019-03-30T04:59:01.384Z,48.63
2019-03-30T05:01:32.574Z,52.80
2019-03-30T05:04:03.722Z,50.70
2019-03-30T05:06:34.947Z,52.60
2019-03-30T05:09:07.135Z,53.55
2019-03-30T05:11:38.331Z,50.43
2019-03-30T05:14:09.511Z,48.00
2019-03-30T05:16:40.714Z,48.00
2019-03-30T05:19:11.990Z,46.23
2019-03-30T05:21:43.212Z,49.85
2019-03-30T05:24:14.385Z,49.25
2019-03-30T05:26:45.575Z,50.98
2019-03-30T05:29:16.779Z,46.37
2019-03-30T05:31:48.029Z,48.28
2019-03-30T05:34:19.271Z,43.80
2019-03-30T05:36:50.499Z,46.42
2019-03-30T05:39:21.643Z,43.90
2019-03-30T05:41:52.832Z,46.08
2019-03-30T05:44:24.073Z,45.65
2019-03-30T05:46:55.239Z,45.55
2019-03-30T05:49:26.398Z,44.30
2019-03-30T05:51:57.612Z,45.35
2019-03-30T05:54:28.803Z,42.78
2019-03-30T05:57:00.051Z,43.50
2019-03-30T05:59:31.479Z,36.83
2019-03-30T06:02:02.658Z,39.45
2019-03-30T06:04:33.903Z,36.95
2019-03-30T06:07:05.115Z,39.85
2019-03-30T06:09:36.315Z,43.35
2019-03-30T06:12:07.493Z,40.75
2019-03-30T06:14:38.683Z,40.20
2019-03-30T06:17:09.829Z,40.40
2019-03-30T06:19:41.043Z,43.25
2019-03-30T06:22:12.273Z,45.12
2019-03-30T06:24:43.434Z,41.70
2019-03-30T06:27:14.638Z,43.45
2019-03-30T06:29:47.452Z,40.50
2019-03-30T06:32:18.626Z,41.25
2019-03-30T06:34:49.809Z,40.52
2019-03-30T06:37:20.993Z,41.23
2019-03-30T06:39:52.185Z,38.80
2019-03-30T06:42:23.335Z,40.00
2019-03-30T06:44:54.691Z,38.45
2019-03-30T06:47:25.955Z,37.63
2019-03-30T06:49:57.115Z,36.98
2019-03-30T06:52:28.328Z,37.75
2019-03-30T06:54:59.552Z,35.33
2019-03-30T06:57:30.812Z,36.73
2019-03-30T07:00:02.058Z,35.88
2019-03-30T07:02:33.468Z,34.27
2019-03-30T07:05:04.933Z,35.78
2019-03-30T07:07:36.532Z,35.28
2019-03-30T07:10:09.499Z,34.60
2019-03-30T07:12:44.272Z,34.27
2019-03-30T07:15:15.458Z,31.20
2019-03-30T07:17:50.416Z,32.65
2019-03-30T07:20:46.810Z,28.95
2019-03-30T07:23:18.358Z,28.35
2019-03-30T07:25:50.813Z,26.55
2019-03-30T07:28:22.075Z,25.12
2019-03-30T07:30:53.378Z,24.65
2019-03-30T07:33:24.568Z,22.13
2019-03-30T07:35:55.870Z,17.27
2019-03-30T07:38:27.054Z,16.27
2019-03-30T07:40:58.326Z,16.75
2019-03-30T07:43:29.545Z,15.80
2019-03-30T07:46:01.027Z,14.93
2019-03-30T07:48:32.275Z,16.25
2019-03-30T07:51:03.436Z,14.78
2019-03-30T07:53:44.498Z,15.68
2019-03-30T07:56:09.035Z,15.20
2019-03-30T07:58:40.302Z,16.15
2019-03-30T08:01:11.498Z,15.98
2019-03-30T08:03:42.982Z,16.62
2019-03-30T08:06:14.164Z,16.85
2019-03-30T08:08:45.406Z,15.85
2019-03-30T08:11:16.699Z,13.32
2019-03-30T08:13:47.926Z,15.70
2019-03-30T08:16:19.116Z,14.95
2019-03-30T08:18:50.313Z,15.75
2019-03-30T08:21:21.672Z,14.60
2019-03-30T08:23:52.886Z,15.35
2019-03-30T08:26:24.133Z,15.28
2019-03-30T08:28:55.472Z,15.93
2019-03-30T08:31:26.687Z,16.35
2019-03-30T08:33:57.911Z,17.55
2019-03-30T08:36:29.097Z,16.52
2019-03-30T08:39:00.253Z,15.20
2019-03-30T08:41:31.469Z,16.17
2019-03-30T08:44:02.840Z,16.32
2019-03-30T08:46:34.109Z,16.87
2019-03-30T08:49:05.334Z,15.35
2019-03-30T08:51:36.536Z,15.28
2019-03-30T08:54:07.940Z,15.48
2019-03-30T08:56:39.188Z,15.05
2019-03-30T08:59:10.463Z,14.53
2019-03-30T09:01:41.669Z,13.93
2019-03-30T09:04:12.945Z,14.15
2019-03-30T09:06:44.242Z,15.88
2019-03-30T09:09:15.521Z,14.35
2019-03-30T09:11:46.779Z,13.90
2019-03-30T09:14:17.937Z,13.25
2019-03-30T09:16:49.290Z,12.73
2019-03-30T09:19:20.511Z,14.07
2019-03-30T09:21:51.664Z,12.68
2019-03-30T09:24:22.936Z,13.05
2019-03-30T09:26:54.251Z,13.58
2019-03-30T09:29:25.482Z,12.75
2019-03-30T09:31:56.722Z,12.90
2019-03-30T09:34:28.192Z,14.75
2019-03-30T09:36:59.375Z,13.40
2019-03-30T09:39:30.568Z,13.65
2019-03-30T09:42:01.775Z,14.40
2019-03-30T09:44:33.039Z,14.65
2019-03-30T09:47:04.266Z,14.40
2019-03-30T09:49:35.463Z,14.07
2019-03-30T09:52:06.747Z,15.93
2019-03-30T09:54:37.949Z,15.65
2019-03-30T09:57:09.195Z,12.68
2019-03-30T09:59:40.428Z,14.53
2019-03-30T10:02:11.720Z,14.10
2019-03-30T10:04:42.998Z,14.75
2019-03-30T10:07:14.179Z,16.27
2019-03-30T10:09:47.328Z,16.05
2019-03-30T10:12:18.490Z,17.32
2019-03-30T10:14:49.855Z,15.50
2019-03-30T10:17:21.140Z,14.78
2019-03-30T10:20:03.623Z,16.05
2019-03-30T10:22:25.350Z,14.95
2019-03-30T10:24:58.454Z,16.10
2019-03-30T10:27:29.913Z,16.73
2019-03-30T10:30:01.096Z,14.23
2019-03-30T10:32:32.371Z,14.50
2019-03-30T10:35:03.818Z,15.10
2019-03-30T10:37:35.206Z,16.32
2019-03-30T10:40:07.486Z,15.78
2019-03-30T10:42:38.695Z,15.43
2019-03-30T10:45:11.449Z,16.55
2019-03-30T10:47:42.714Z,16.48
2019-03-30T10:50:14.265Z,16.20
2019-03-30T10:52:45.635Z,16.50
2019-03-30T10:55:16.863Z,17.82
2019-03-30T10:57:48.067Z,16.97
2019-03-30T11:00:40.347Z,17.70
2019-03-30T11:03:11.622Z,16.90
2019-03-30T11:05:42.898Z,17.57
2019-03-30T11:08:14.347Z,14.95
2019-03-30T11:10:45.537Z,16.23
2019-03-30T11:13:16.703Z,16.10
2019-03-30T11:15:47.877Z,16.60
2019-03-30T11:18:19.238Z,15.72
2019-03-30T11:20:50.465Z,18.40
2019-03-30T11:23:21.682Z,17.42
2019-03-30T11:25:52.905Z,14.98
2019-03-30T11:28:24.110Z,16.77
2019-03-30T11:30:55.307Z,18.25
2019-03-30T11:33:26.537Z,16.62
2019-03-30T11:35:57.741Z,17.30
2019-03-30T11:38:28.904Z,17.90
2019-03-30T11:41:00.233Z,15.30
2019-03-30T11:43:31.410Z,15.28
2019-03-30T11:46:02.678Z,14.70
2019-03-30T11:48:37.160Z,15.78
2019-03-30T11:51:06.973Z,14.65
2019-03-30T11:53:38.391Z,12.33
2019-03-30T11:56:09.853Z,12.15
2019-03-30T11:58:41.399Z,12.40
2019-03-30T12:01:13.615Z,12.47
2019-03-30T12:03:44.820Z,11.93
2019-03-30T12:06:16.063Z,11.78
2019-03-30T12:08:47.472Z,12.50
2019-03-30T12:11:18.697Z,9.80
2019-03-30T12:13:50.052Z,10.40
2019-03-30T12:16:21.309Z,12.30
2019-03-30T12:18:52.553Z,12.28
2019-03-30T12:21:23.773Z,12.43
2019-03-30T12:23:54.972Z,13.00
2019-03-30T12:26:26.139Z,11.97
2019-03-30T12:28:57.310Z,11.80
2019-03-30T12:31:28.488Z,11.33
2019-03-30T12:33:59.693Z,13.40
2019-03-30T12:36:31.073Z,14.00
2019-03-30T12:39:03.775Z,13.32
2019-03-30T12:41:35.065Z,13.15
2019-03-30T12:44:06.716Z,12.68
2019-03-30T12:46:42.434Z,11.50
2019-03-30T12:49:14.831Z,11.65
2019-03-30T12:51:46.161Z,11.25
2019-03-30T12:54:17.553Z,12.23
2019-03-30T12:56:49.089Z,13.72
2019-03-30T12:59:20.527Z,10.50
2019-03-30T13:01:51.895Z,11.90
2019-03-30T13:04:23.318Z,11.85
2019-03-30T13:06:54.900Z,13.45
2019-03-30T13:09:26.169Z,11.12
2019-03-30T13:11:57.316Z,13.58
2019-03-30T13:14:28.631Z,13.22
2019-03-30T13:16:59.802Z,14.07
2019-03-30T13:19:30.984Z,14.43
2019-03-30T13:22:02.225Z,13.60
2019-03-30T13:24:33.764Z,14.55
2019-03-30T13:27:04.955Z,15.50
2019-03-30T13:29:36.185Z,14.18
2019-03-30T13:32:07.363Z,16.42
2019-03-30T13:34:38.526Z,17.77
2019-03-30T13:37:19.354Z,18.45
2019-03-30T13:39:50.570Z,18.15
2019-03-30T13:42:21.803Z,16.57
2019-03-30T13:44:52.993Z,19.40
2019-03-30T13:47:24.179Z,19.00
2019-03-30T13:49:55.481Z,19.82
2019-03-30T13:52:26.721Z,21.15
2019-03-30T13:54:57.919Z,20.90
2019-03-30T13:57:29.116Z,19.75
2019-03-30T14:00:00.395Z,27.70
2019-03-30T14:02:31.581Z,20.12
2019-03-30T14:05:02.747Z,20.23
2019-03-30T14:07:33.998Z,19.87
2019-03-30T14:10:05.742Z,18.65
2019-03-30T14:12:37.350Z,19.17
2019-03-30T14:15:09.495Z,19.80
2019-03-30T14:17:41.431Z,19.90
2019-03-30T14:20:12.829Z,20.75
2019-03-30T14:22:44.042Z,19.98
2019-03-30T14:25:15.222Z,33.23
2019-03-30T14:27:46.462Z,23.40
2019-03-30T14:30:17.881Z,25.85
2019-03-30T14:32:49.036Z,23.85
2019-03-30T14:35:20.222Z,21.80
2019-03-30T14:37:51.444Z,21.15
2019-03-30T14:40:22.665Z,25.05
2019-03-30T14:42:53.867Z,22.62
2019-03-30T14:45:25.184Z,23.25
2019-03-30T14:47:58.020Z,22.50
2019-03-30T14:50:29.558Z,23.32
2019-03-30T14:53:01.209Z,21.77
2019-03-30T14:55:32.369Z,21.33
2019-03-30T14:58:03.725Z,19.98
2019-03-30T15:00:34.998Z,20.75
2019-03-30T15:03:06.319Z,21.20
2019-03-30T15:05:37.717Z,20.65
2019-03-30T15:08:08.903Z,19.98
2019-03-30T15:10:40.110Z,18.65
2019-03-30T15:13:11.361Z,18.65
2019-03-30T15:15:42.602Z,19.40
2019-03-30T15:18:13.831Z,18.15
2019-03-30T15:20:45.141Z,18.98
2019-03-30T15:23:16.310Z,18.20
2019-03-30T15:25:47.526Z,18.67
2019-03-30T15:28:18.832Z,15.93
2019-03-30T15:30:50.027Z,15.70
2019-03-30T15:33:21.306Z,16.62
2019-03-30T15:35:52.520Z,15.60
2019-03-30T15:38:23.793Z,14.93
2019-03-30T15:40:55.795Z,14.93
2019-03-30T15:43:38.142Z,15.83
2019-03-30T15:46:00.442Z,15.68
2019-03-30T15:48:31.696Z,15.18
2019-03-30T15:51:02.888Z,16.97
2019-03-30T15:53:34.103Z,14.78
2019-03-30T15:56:05.375Z,15.93
2019-03-30T15:58:36.812Z,15.98
2019-03-30T16:01:08.010Z,17.67
2019-03-30T16:03:39.279Z,18.07
2019-03-30T16:06:10.480Z,17.25
2019-03-30T16:08:41.706Z,18.35
2019-03-30T16:11:12.921Z,18.98
2019-03-30T16:13:44.152Z,15.78
2019-03-30T16:16:15.334Z,17.42
2019-03-30T16:18:46.705Z,16.48
2019-03-30T16:21:17.916Z,16.00
2019-03-30T16:23:49.169Z,16.75
2019-03-30T16:26:20.357Z,16.82
2019-03-30T16:28:51.544Z,17.70
2019-03-30T16:31:22.864Z,16.50
2019-03-30T16:33:54.055Z,17.25
2019-03-30T16:36:25.302Z,17.85
2019-03-30T16:38:56.544Z,16.23
2019-03-30T16:41:27.879Z,18.60
2019-03-30T16:43:59.147Z,30.40
2019-03-30T16:46:30.348Z,32.75
2019-03-30T16:49:01.529Z,32.80
2019-03-30T16:51:32.876Z,31.30
2019-03-30T16:54:04.111Z,32.42
2019-03-30T16:56:35.340Z,32.40
2019-03-30T16:59:07.044Z,35.65
2019-03-30T17:01:38.380Z,33.33
2019-03-30T17:04:09.615Z,32.38
2019-03-30T17:06:40.809Z,34.30
2019-03-30T17:09:12.152Z,33.35
2019-03-30T17:11:43.348Z,32.40
2019-03-30T17:14:14.607Z,35.70
2019-03-30T17:16:45.831Z,33.55
2019-03-30T17:19:17.026Z,33.73
2019-03-30T17:21:48.358Z,35.48
2019-03-30T17:24:19.563Z,32.83
2019-03-30T17:26:50.843Z,32.20
2019-03-30T17:29:22.088Z,33.90
2019-03-30T17:31:53.316Z,32.50
2019-03-30T17:34:24.519Z,35.10
2019-03-30T17:36:55.801Z,31.65
2019-03-30T17:39:27.027Z,33.90
2019-03-30T17:41:58.295Z,33.92
2019-03-30T17:44:29.549Z,33.75
2019-03-30T17:47:00.744Z,33.33
2019-03-30T17:49:31.965Z,32.17
2019-03-30T17:52:03.307Z,33.20
2019-03-30T17:54:34.563Z,33.70
2019-03-30T17:57:05.781Z,31.93
2019-03-30T17:59:37.041Z,33.98
2019-03-30T18:02:08.280Z,32.50
2019-03-30T18:04:39.877Z,33.50
2019-03-30T18:07:13.638Z,34.18
2019-03-30T18:09:44.164Z,33.23
2019-03-30T18:12:15.430Z,34.90
2019-03-30T18:14:46.671Z,33.42
2019-03-30T18:17:17.923Z,34.73
2019-03-30T18:19:49.184Z,34.38
2019-03-30T18:22:20.520Z,33.40
2019-03-30T18:24:51.773Z,33.20
2019-03-30T18:27:22.989Z,31.93
2019-03-30T18:29:54.201Z,32.78
2019-03-30T18:32:25.634Z,31.65
2019-03-30T18:34:57.010Z,30.35
2019-03-30T18:37:29.866Z,30.55
2019-03-30T18:40:01.162Z,30.15
2019-03-30T18:42:32.510Z,30.27
2019-03-30T18:45:04.505Z,32.20
2019-03-30T18:47:35.699Z,34.33
2019-03-30T18:50:07.778Z,31.50
2019-03-30T18:52:39.220Z,33.28
2019-03-30T18:55:13.455Z,31.95
2019-03-30T18:57:44.748Z,32.38
2019-03-30T19:00:20.938Z,33.67
2019-03-30T19:02:52.199Z,33.53
2019-03-30T19:05:23.515Z,32.73
2019-03-30T19:07:54.914Z,31.48
2019-03-30T19:10:26.169Z,28.85
2019-03-30T19:12:57.512Z,29.25
2019-03-30T19:15:28.911Z,28.40
2019-03-30T19:18:00.097Z,29.32
2019-03-30T19:20:31.338Z,31.55
2019-03-30T19:23:02.673Z,30.65
2019-03-30T19:25:33.925Z,29.82
2019-03-30T19:28:05.216Z,30.17
2019-03-30T19:30:36.391Z,31.25
2019-03-30T19:33:07.673Z,31.33
2019-03-30T19:35:38.923Z,29.40
2019-03-30T19:38:11.013Z,29.25
2019-03-30T19:40:42.583Z,29.02
2019-03-30T19:43:13.843Z,29.32
2019-03-30T19:45:45.089Z,29.92
2019-03-30T19:48:16.366Z,30.52
2019-03-30T19:50:47.841Z,30.27
2019-03-30T19:53:19.061Z,29.80
2019-03-30T19:55:50.296Z,30.43
2019-03-30T19:58:21.543Z,31.45
2019-03-30T20:00:52.749Z,30.48
2019-03-30T20:03:23.956Z,30.30
2019-03-30T20:05:55.184Z,30.90
2019-03-30T20:08:26.504Z,30.05
2019-03-30T20:10:57.694Z,30.57
2019-03-30T20:13:28.926Z,31.05
2019-03-30T20:16:00.079Z,31.65
2019-03-30T20:18:31.287Z,31.25
2019-03-30T20:21:02.598Z,32.00
2019-03-30T20:23:33.879Z,32.30
2019-03-30T20:26:05.105Z,32.60
2019-03-30T20:28:36.460Z,33.65
2019-03-30T20:31:07.694Z,32.95
2019-03-30T20:33:38.889Z,32.38
2019-03-30T20:36:10.165Z,33.18
2019-03-30T20:38:41.403Z,32.42
2019-03-30T20:41:12.582Z,34.90
2019-03-30T20:46:27.819Z,33.10
2019-03-30T20:48:59.231Z,32.35
2019-03-30T20:51:30.549Z,32.53
2019-03-30T20:54:01.790Z,32.28
2019-03-30T20:56:32.943Z,34.10
2019-03-30T20:59:04.231Z,32.65
2019-03-30T21:01:38.262Z,33.90
2019-03-30T21:04:08.370Z,34.55
2019-03-30T21:06:39.670Z,34.78
2019-03-30T21:09:10.903Z,34.38
2019-03-30T21:11:42.155Z,35.48
2019-03-30T21:14:20.861Z,34.08
2019-03-30T21:16:52.118Z,35.38
2019-03-30T21:19:23.382Z,35.23
2019-03-30T21:21:54.668Z,35.13
2019-03-30T21:24:25.949Z,35.30
2019-03-30T21:26:57.161Z,34.63
2019-03-30T21:29:28.378Z,34.80
2019-03-30T21:31:59.607Z,33.42
2019-03-30T21:34:30.930Z,33.63
2019-03-30T21:37:02.168Z,33.88
2019-03-30T21:39:33.436Z,33.38
2019-03-30T21:42:04.665Z,30.60
2019-03-30T21:44:36.294Z,33.85
2019-03-30T21:47:07.550Z,32.38
2019-03-30T21:49:38.802Z,34.60
2019-03-30T21:52:10.291Z,34.10
2019-03-30T21:54:41.457Z,31.50
2019-03-30T21:57:12.665Z,33.73
2019-03-30T21:59:43.913Z,32.08
2019-03-30T22:02:15.301Z,30.70
2019-03-30T22:04:46.516Z,34.15
2019-03-30T22:07:17.852Z,34.98
2019-03-30T22:09:49.719Z,34.63
2019-03-30T22:12:20.943Z,35.03
2019-03-30T22:14:52.128Z,36.10
2019-03-30T22:17:23.508Z,36.15
2019-03-30T22:19:54.771Z,36.73
2019-03-30T22:22:26.009Z,35.45
2019-03-30T22:24:57.349Z,29.42
2019-03-30T22:27:28.517Z,36.35
2019-03-30T22:29:59.743Z,37.33
2019-03-30T22:32:30.948Z,35.63
2019-03-30T22:35:02.331Z,35.35
2019-03-30T22:37:33.659Z,35.25
2019-03-30T22:40:05.810Z,34.58
2019-03-30T22:42:37.188Z,33.35
2019-03-30T22:45:09.253Z,36.10
2019-03-30T22:47:40.452Z,34.80
2019-03-30T22:50:12.353Z,34.35
2019-03-30T22:52:43.564Z,33.83
2019-03-30T22:55:14.815Z,34.60
2019-03-30T22:57:46.066Z,35.45
2019-03-30T23:00:39.617Z,37.48
2019-03-30T23:03:11.407Z,36.05
2019-03-30T23:05:42.793Z,34.33
2019-03-30T23:08:13.993Z,34.83
2019-03-30T23:10:45.261Z,35.83
2019-03-30T23:13:16.571Z,35.78
2019-03-30T23:15:47.819Z,36.88
2019-03-30T23:18:19.169Z,39.58
2019-03-30T23:20:50.368Z,38.30
2019-03-30T23:23:21.589Z,37.88
2019-03-30T23:25:52.864Z,42.53
2019-03-30T23:28:24.081Z,42.50
2019-03-30T23:30:55.326Z,41.75
2019-03-30T23:33:26.593Z,40.50
2019-03-30T23:35:57.785Z,40.98
2019-03-30T23:38:28.957Z,42.78
2019-03-30T23:41:00.265Z,40.90
2019-03-30T23:43:31.497Z,40.45
2019-03-30T23:46:02.785Z,42.15
2019-03-30T23:48:34.014Z,44.13
2019-03-30T23:51:05.214Z,45.90
2019-03-30T23:53:36.451Z,46.45
2019-03-30T23:56:23.987Z,45.90
2019-03-30T23:58:55.336Z,42.88
